sensor_id;sensor_type;location;lat;lon;timestamp;temperature;humidity
83808;SHT31;73824;40.292;17.998;2023-12-14T00:00:46;15.77;90.99
83808;SHT31;73824;40.292;17.998;2023-12-14T00:03:12;15.93;90.44
83808;SHT31;73824;40.292;17.998;2023-12-14T00:05:37;15.89;90.28
83808;SHT31;73824;40.292;17.998;2023-12-14T00:08:03;15.73;90.61
83808;SHT31;73824;40.292;17.998;2023-12-14T00:10:28;15.59;91.10
83808;SHT31;73824;40.292;17.998;2023-12-14T00:12:54;15.56;91.40
83808;SHT31;73824;40.292;17.998;2023-12-14T00:15:20;15.62;91.46
83808;SHT31;73824;40.292;17.998;2023-12-14T00:17:46;15.56;91.37
83808;SHT31;73824;40.292;17.998;2023-12-14T00:20:11;15.60;91.54
83808;SHT31;73824;40.292;17.998;2023-12-14T00:22:37;15.59;91.62
83808;SHT31;73824;40.292;17.998;2023-12-14T00:25:04;15.49;91.90
83808;SHT31;73824;40.292;17.998;2023-12-14T00:27:29;15.50;91.82
83808;SHT31;73824;40.292;17.998;2023-12-14T00:29:55;15.43;91.79
83808;SHT31;73824;40.292;17.998;2023-12-14T00:32:20;15.39;92.03
83808;SHT31;73824;40.292;17.998;2023-12-14T00:34:46;15.39;92.20
83808;SHT31;73824;40.292;17.998;2023-12-14T00:37:11;15.49;92.34
83808;SHT31;73824;40.292;17.998;2023-12-14T00:39:37;15.43;92.30
83808;SHT31;73824;40.292;17.998;2023-12-14T00:42:03;15.55;92.22
83808;SHT31;73824;40.292;17.998;2023-12-14T00:44:28;15.48;92.38
83808;SHT31;73824;40.292;17.998;2023-12-14T00:46:54;15.43;92.44
83808;SHT31;73824;40.292;17.998;2023-12-14T00:49:19;15.41;92.51
83808;SHT31;73824;40.292;17.998;2023-12-14T00:51:45;15.41;92.75
83808;SHT31;73824;40.292;17.998;2023-12-14T00:54:10;15.43;92.94
83808;SHT31;73824;40.292;17.998;2023-12-14T00:56:36;15.55;92.86
83808;SHT31;73824;40.292;17.998;2023-12-14T00:59:01;15.62;92.49
83808;SHT31;73824;40.292;17.998;2023-12-14T01:01:27;15.58;92.62
83808;SHT31;73824;40.292;17.998;2023-12-14T01:03:52;15.53;92.74
83808;SHT31;73824;40.292;17.998;2023-12-14T01:06:18;15.50;92.85
83808;SHT31;73824;40.292;17.998;2023-12-14T01:08:43;15.58;92.87
83808;SHT31;73824;40.292;17.998;2023-12-14T01:11:09;15.60;92.53
83808;SHT31;73824;40.292;17.998;2023-12-14T01:13:35;15.53;92.73
83808;SHT31;73824;40.292;17.998;2023-12-14T01:16:00;15.62;92.88
83808;SHT31;73824;40.292;17.998;2023-12-14T01:18:25;15.59;92.50
83808;SHT31;73824;40.292;17.998;2023-12-14T01:20:51;15.69;92.43
83808;SHT31;73824;40.292;17.998;2023-12-14T01:23:16;15.73;92.28
83808;SHT31;73824;40.292;17.998;2023-12-14T01:25:42;15.59;92.50
83808;SHT31;73824;40.292;17.998;2023-12-14T01:28:07;15.63;92.51
83808;SHT31;73824;40.292;17.998;2023-12-14T01:30:34;15.55;92.74
83808;SHT31;73824;40.292;17.998;2023-12-14T01:32:59;15.48;92.91
83808;SHT31;73824;40.292;17.998;2023-12-14T01:35:25;15.46;93.04
83808;SHT31;73824;40.292;17.998;2023-12-14T01:37:50;15.49;93.11
83808;SHT31;73824;40.292;17.998;2023-12-14T01:40:18;15.58;92.97
83808;SHT31;73824;40.292;17.998;2023-12-14T01:42:45;15.56;92.87
83808;SHT31;73824;40.292;17.998;2023-12-14T01:45:10;15.55;92.87
83808;SHT31;73824;40.292;17.998;2023-12-14T01:47:36;15.43;93.01
83808;SHT31;73824;40.292;17.998;2023-12-14T01:50:01;15.38;93.16
83808;SHT31;73824;40.292;17.998;2023-12-14T01:52:27;15.38;93.31
83808;SHT31;73824;40.292;17.998;2023-12-14T01:54:53;15.41;93.44
83808;SHT31;73824;40.292;17.998;2023-12-14T01:57:20;15.42;93.23
83808;SHT31;73824;40.292;17.998;2023-12-14T01:59:46;15.42;93.30
83808;SHT31;73824;40.292;17.998;2023-12-14T02:02:11;15.35;93.38
83808;SHT31;73824;40.292;17.998;2023-12-14T02:04:37;15.34;93.40
83808;SHT31;73824;40.292;17.998;2023-12-14T02:07:03;15.31;93.42
83808;SHT31;73824;40.292;17.998;2023-12-14T02:09:28;15.31;93.50
83808;SHT31;73824;40.292;17.998;2023-12-14T02:11:54;15.56;92.82
83808;SHT31;73824;40.292;17.998;2023-12-14T02:14:21;15.53;92.79
83808;SHT31;73824;40.292;17.998;2023-12-14T02:16:47;15.55;92.56
83808;SHT31;73824;40.292;17.998;2023-12-14T02:19:12;15.58;92.67
83808;SHT31;73824;40.292;17.998;2023-12-14T02:21:38;15.48;92.61
83808;SHT31;73824;40.292;17.998;2023-12-14T02:24:04;15.58;92.59
83808;SHT31;73824;40.292;17.998;2023-12-14T02:26:29;15.53;92.36
83808;SHT31;73824;40.292;17.998;2023-12-14T02:28:55;15.52;92.24
83808;SHT31;73824;40.292;17.998;2023-12-14T02:31:20;15.46;92.55
83808;SHT31;73824;40.292;17.998;2023-12-14T02:33:46;15.56;92.37
83808;SHT31;73824;40.292;17.998;2023-12-14T02:36:11;15.36;92.59
83808;SHT31;73824;40.292;17.998;2023-12-14T02:38:37;15.36;92.69
83808;SHT31;73824;40.292;17.998;2023-12-14T02:41:02;15.25;93.03
83808;SHT31;73824;40.292;17.998;2023-12-14T02:43:28;15.56;92.74
83808;SHT31;73824;40.292;17.998;2023-12-14T02:45:54;15.45;92.81
83808;SHT31;73824;40.292;17.998;2023-12-14T02:48:20;15.53;92.81
83808;SHT31;73824;40.292;17.998;2023-12-14T02:50:46;15.58;92.64
83808;SHT31;73824;40.292;17.998;2023-12-14T02:53:11;15.38;92.92
83808;SHT31;73824;40.292;17.998;2023-12-14T02:55:37;15.41;93.09
83808;SHT31;73824;40.292;17.998;2023-12-14T02:58:02;15.50;93.09
83808;SHT31;73824;40.292;17.998;2023-12-14T03:00:28;15.42;93.06
83808;SHT31;73824;40.292;17.998;2023-12-14T03:02:53;15.34;93.11
83808;SHT31;73824;40.292;17.998;2023-12-14T03:05:19;15.22;93.38
83808;SHT31;73824;40.292;17.998;2023-12-14T03:07:46;15.21;93.53
83808;SHT31;73824;40.292;17.998;2023-12-14T03:10:11;15.38;93.51
83808;SHT31;73824;40.292;17.998;2023-12-14T03:12:37;15.52;93.15
83808;SHT31;73824;40.292;17.998;2023-12-14T03:15:03;15.46;93.04
83808;SHT31;73824;40.292;17.998;2023-12-14T03:17:28;15.41;92.99
83808;SHT31;73824;40.292;17.998;2023-12-14T03:19:54;15.32;93.28
83808;SHT31;73824;40.292;17.998;2023-12-14T03:22:19;15.27;93.35
83808;SHT31;73824;40.292;17.998;2023-12-14T03:24:45;15.39;93.41
83808;SHT31;73824;40.292;17.998;2023-12-14T03:27:11;15.29;93.48
83808;SHT31;73824;40.292;17.998;2023-12-14T03:29:36;15.41;93.16
83808;SHT31;73824;40.292;17.998;2023-12-14T03:32:02;15.22;93.42
83808;SHT31;73824;40.292;17.998;2023-12-14T03:34:27;15.21;93.60
83808;SHT31;73824;40.292;17.998;2023-12-14T03:36:53;15.12;93.80
83808;SHT31;73824;40.292;17.998;2023-12-14T03:39:18;15.20;93.85
83808;SHT31;73824;40.292;17.998;2023-12-14T03:41:44;15.15;93.79
83808;SHT31;73824;40.292;17.998;2023-12-14T03:44:10;15.05;93.99
83808;SHT31;73824;40.292;17.998;2023-12-14T03:46:35;15.04;94.13
83808;SHT31;73824;40.292;17.998;2023-12-14T03:49:01;15.05;94.12
83808;SHT31;73824;40.292;17.998;2023-12-14T03:51:27;15.11;94.08
83808;SHT31;73824;40.292;17.998;2023-12-14T03:53:52;15.02;94.07
83808;SHT31;73824;40.292;17.998;2023-12-14T03:56:18;14.97;94.22
83808;SHT31;73824;40.292;17.998;2023-12-14T03:58:43;14.98;94.28
83808;SHT31;73824;40.292;17.998;2023-12-14T04:01:16;14.85;94.35
83808;SHT31;73824;40.292;17.998;2023-12-14T04:03:42;15.25;93.90
83808;SHT31;73824;40.292;17.998;2023-12-14T04:06:08;15.08;93.90
83808;SHT31;73824;40.292;17.998;2023-12-14T04:08:33;14.97;94.08
83808;SHT31;73824;40.292;17.998;2023-12-14T04:10:58;14.88;94.16
83808;SHT31;73824;40.292;17.998;2023-12-14T04:13:24;14.85;94.30
83808;SHT31;73824;40.292;17.998;2023-12-14T04:15:49;14.81;94.39
83808;SHT31;73824;40.292;17.998;2023-12-14T04:18:15;14.73;94.44
83808;SHT31;73824;40.292;17.998;2023-12-14T04:20:40;14.69;94.54
83808;SHT31;73824;40.292;17.998;2023-12-14T04:23:06;14.70;94.63
83808;SHT31;73824;40.292;17.998;2023-12-14T04:25:31;14.69;94.70
83808;SHT31;73824;40.292;17.998;2023-12-14T04:27:57;14.64;94.80
83808;SHT31;73824;40.292;17.998;2023-12-14T04:30:22;14.76;94.73
83808;SHT31;73824;40.292;17.998;2023-12-14T04:32:48;14.77;94.63
83808;SHT31;73824;40.292;17.998;2023-12-14T04:35:14;14.67;94.69
83808;SHT31;73824;40.292;17.998;2023-12-14T04:37:39;14.81;94.64
83808;SHT31;73824;40.292;17.998;2023-12-14T04:40:05;14.87;94.35
83808;SHT31;73824;40.292;17.998;2023-12-14T04:42:31;14.95;94.11
83808;SHT31;73824;40.292;17.998;2023-12-14T04:44:56;14.90;93.92
83808;SHT31;73824;40.292;17.998;2023-12-14T04:47:22;14.94;93.76
83808;SHT31;73824;40.292;17.998;2023-12-14T04:49:47;15.00;93.68
83808;SHT31;73824;40.292;17.998;2023-12-14T04:52:13;14.91;93.71
83808;SHT31;73824;40.292;17.998;2023-12-14T04:54:38;14.84;93.80
83808;SHT31;73824;40.292;17.998;2023-12-14T04:57:05;14.80;93.90
83808;SHT31;73824;40.292;17.998;2023-12-14T04:59:31;14.80;93.94
83808;SHT31;73824;40.292;17.998;2023-12-14T05:01:56;14.81;94.02
83808;SHT31;73824;40.292;17.998;2023-12-14T05:04:22;14.83;94.05
83808;SHT31;73824;40.292;17.998;2023-12-14T05:06:47;14.85;93.84
83808;SHT31;73824;40.292;17.998;2023-12-14T05:09:13;15.02;93.15
83808;SHT31;73824;40.292;17.998;2023-12-14T05:11:41;15.04;92.98
83808;SHT31;73824;40.292;17.998;2023-12-14T05:14:07;15.07;92.55
83808;SHT31;73824;40.292;17.998;2023-12-14T05:16:33;14.90;92.85
83808;SHT31;73824;40.292;17.998;2023-12-14T05:18:59;14.98;92.84
83808;SHT31;73824;40.292;17.998;2023-12-14T05:21:24;14.97;92.70
83808;SHT31;73824;40.292;17.998;2023-12-14T05:23:50;14.81;92.95
83808;SHT31;73824;40.292;17.998;2023-12-14T05:26:16;14.70;93.32
83808;SHT31;73824;40.292;17.998;2023-12-14T05:28:42;14.64;93.56
83808;SHT31;73824;40.292;17.998;2023-12-14T05:31:08;14.55;93.71
83808;SHT31;73824;40.292;17.998;2023-12-14T05:33:39;14.49;93.88
83808;SHT31;73824;40.292;17.998;2023-12-14T05:36:05;14.62;93.96
83808;SHT31;73824;40.292;17.998;2023-12-14T05:38:39;14.53;93.97
83808;SHT31;73824;40.292;17.998;2023-12-14T05:41:05;14.50;94.18
83808;SHT31;73824;40.292;17.998;2023-12-14T05:43:30;14.43;94.26
83808;SHT31;73824;40.292;17.998;2023-12-14T05:45:56;14.45;94.36
83808;SHT31;73824;40.292;17.998;2023-12-14T05:48:22;14.42;94.36
83808;SHT31;73824;40.292;17.998;2023-12-14T05:50:47;14.36;94.48
83808;SHT31;73824;40.292;17.998;2023-12-14T05:53:13;14.36;94.54
83808;SHT31;73824;40.292;17.998;2023-12-14T05:55:38;14.35;94.59
83808;SHT31;73824;40.292;17.998;2023-12-14T05:58:06;14.42;94.54
83808;SHT31;73824;40.292;17.998;2023-12-14T06:00:33;14.42;94.59
83808;SHT31;73824;40.292;17.998;2023-12-14T06:03:00;14.45;94.44
83808;SHT31;73824;40.292;17.998;2023-12-14T06:05:25;14.43;94.40
83808;SHT31;73824;40.292;17.998;2023-12-14T06:07:51;14.45;94.36
83808;SHT31;73824;40.292;17.998;2023-12-14T06:10:17;14.46;94.29
83808;SHT31;73824;40.292;17.998;2023-12-14T06:12:43;14.49;94.19
83808;SHT31;73824;40.292;17.998;2023-12-14T06:15:08;14.63;93.93
83808;SHT31;73824;40.292;17.998;2023-12-14T06:17:34;14.57;93.75
83808;SHT31;73824;40.292;17.998;2023-12-14T06:20:02;14.50;93.79
83808;SHT31;73824;40.292;17.998;2023-12-14T06:22:29;14.52;93.87
83808;SHT31;73824;40.292;17.998;2023-12-14T06:24:54;14.49;94.00
83808;SHT31;73824;40.292;17.998;2023-12-14T06:27:20;14.49;94.04
83808;SHT31;73824;40.292;17.998;2023-12-14T06:29:48;14.55;94.05
83808;SHT31;73824;40.292;17.998;2023-12-14T06:32:13;14.53;93.98
83808;SHT31;73824;40.292;17.998;2023-12-14T06:34:39;14.50;93.78
83808;SHT31;73824;40.292;17.998;2023-12-14T06:37:04;14.47;93.78
83808;SHT31;73824;40.292;17.998;2023-12-14T06:39:30;14.57;93.76
83808;SHT31;73824;40.292;17.998;2023-12-14T06:41:56;14.59;93.47
83808;SHT31;73824;40.292;17.998;2023-12-14T06:44:21;14.60;93.27
83808;SHT31;73824;40.292;17.998;2023-12-14T06:46:47;14.66;93.08
83808;SHT31;73824;40.292;17.998;2023-12-14T06:49:12;14.77;92.72
83808;SHT31;73824;40.292;17.998;2023-12-14T06:51:38;14.80;92.26
83808;SHT31;73824;40.292;17.998;2023-12-14T06:54:03;14.81;92.20
83808;SHT31;73824;40.292;17.998;2023-12-14T06:56:29;14.80;92.21
83808;SHT31;73824;40.292;17.998;2023-12-14T06:58:54;14.83;92.17
83808;SHT31;73824;40.292;17.998;2023-12-14T07:01:20;14.88;91.84
83808;SHT31;73824;40.292;17.998;2023-12-14T07:03:45;14.84;91.67
83808;SHT31;73824;40.292;17.998;2023-12-14T07:06:15;14.80;91.63
83808;SHT31;73824;40.292;17.998;2023-12-14T07:08:41;14.88;91.64
83808;SHT31;73824;40.292;17.998;2023-12-14T07:11:10;14.97;91.32
83808;SHT31;73824;40.292;17.998;2023-12-14T07:13:37;14.94;91.31
83808;SHT31;73824;40.292;17.998;2023-12-14T07:16:07;15.00;91.25
83808;SHT31;73824;40.292;17.998;2023-12-14T07:18:34;15.02;91.04
83808;SHT31;73824;40.292;17.998;2023-12-14T07:21:01;15.05;90.60
83808;SHT31;73824;40.292;17.998;2023-12-14T07:23:27;15.05;90.63
83808;SHT31;73824;40.292;17.998;2023-12-14T07:25:52;15.24;89.88
83808;SHT31;73824;40.292;17.998;2023-12-14T07:28:18;15.28;89.77
83808;SHT31;73824;40.292;17.998;2023-12-14T07:30:45;15.34;89.29
83808;SHT31;73824;40.292;17.998;2023-12-14T07:33:11;15.34;89.56
83808;SHT31;73824;40.292;17.998;2023-12-14T07:35:37;15.39;89.00
83808;SHT31;73824;40.292;17.998;2023-12-14T07:38:02;15.41;89.28
83808;SHT31;73824;40.292;17.998;2023-12-14T07:40:28;15.38;89.23
83808;SHT31;73824;40.292;17.998;2023-12-14T07:42:54;15.38;89.17
83808;SHT31;73824;40.292;17.998;2023-12-14T07:45:19;15.39;89.31
83808;SHT31;73824;40.292;17.998;2023-12-14T07:47:45;15.42;89.14
83808;SHT31;73824;40.292;17.998;2023-12-14T07:50:11;15.56;88.44
83808;SHT31;73824;40.292;17.998;2023-12-14T07:52:37;15.60;87.92
83808;SHT31;73824;40.292;17.998;2023-12-14T07:55:04;15.67;87.58
83808;SHT31;73824;40.292;17.998;2023-12-14T07:57:30;15.79;87.27
83808;SHT31;73824;40.292;17.998;2023-12-14T07:59:56;15.89;86.89
83808;SHT31;73824;40.292;17.998;2023-12-14T08:02:22;15.91;86.62
83808;SHT31;73824;40.292;17.998;2023-12-14T08:04:48;16.18;85.18
83808;SHT31;73824;40.292;17.998;2023-12-14T08:07:13;16.37;85.06
83808;SHT31;73824;40.292;17.998;2023-12-14T08:09:39;16.51;84.54
83808;SHT31;73824;40.292;17.998;2023-12-14T08:12:05;16.68;83.73
83808;SHT31;73824;40.292;17.998;2023-12-14T08:14:32;16.75;83.61
83808;SHT31;73824;40.292;17.998;2023-12-14T08:16:59;17.00;82.07
83808;SHT31;73824;40.292;17.998;2023-12-14T08:19:25;17.09;81.82
83808;SHT31;73824;40.292;17.998;2023-12-14T08:21:50;17.03;81.14
83808;SHT31;73824;40.292;17.998;2023-12-14T08:24:16;17.02;81.44
83808;SHT31;73824;40.292;17.998;2023-12-14T08:26:41;16.86;82.25
83808;SHT31;73824;40.292;17.998;2023-12-14T08:29:07;16.72;82.81
83808;SHT31;73824;40.292;17.998;2023-12-14T08:31:33;16.80;83.18
83808;SHT31;73824;40.292;17.998;2023-12-14T08:33:58;16.96;82.94
83808;SHT31;73824;40.292;17.998;2023-12-14T08:36:23;17.24;81.73
83808;SHT31;73824;40.292;17.998;2023-12-14T08:38:49;17.37;81.23
83808;SHT31;73824;40.292;17.998;2023-12-14T08:41:15;17.44;80.79
83808;SHT31;73824;40.292;17.998;2023-12-14T08:43:44;17.45;80.91
83808;SHT31;73824;40.292;17.998;2023-12-14T08:46:09;17.44;81.09
83808;SHT31;73824;40.292;17.998;2023-12-14T08:48:35;17.31;80.85
83808;SHT31;73824;40.292;17.998;2023-12-14T08:51:01;17.19;81.21
83808;SHT31;73824;40.292;17.998;2023-12-14T08:53:27;17.24;80.78
83808;SHT31;73824;40.292;17.998;2023-12-14T08:55:53;17.17;80.61
83808;SHT31;73824;40.292;17.998;2023-12-14T08:58:19;17.17;80.90
83808;SHT31;73824;40.292;17.998;2023-12-14T09:00:45;17.17;80.58
83808;SHT31;73824;40.292;17.998;2023-12-14T09:03:10;17.14;80.46
83808;SHT31;73824;40.292;17.998;2023-12-14T09:05:36;17.04;80.62
83808;SHT31;73824;40.292;17.998;2023-12-14T09:08:02;17.04;80.82
83808;SHT31;73824;40.292;17.998;2023-12-14T09:10:28;17.02;81.03
83808;SHT31;73824;40.292;17.998;2023-12-14T09:12:53;16.87;81.40
83808;SHT31;73824;40.292;17.998;2023-12-14T09:15:19;16.79;82.10
83808;SHT31;73824;40.292;17.998;2023-12-14T09:17:44;16.73;82.78
83808;SHT31;73824;40.292;17.998;2023-12-14T09:20:10;16.55;83.02
83808;SHT31;73824;40.292;17.998;2023-12-14T09:22:36;16.61;82.52
83808;SHT31;73824;40.292;17.998;2023-12-14T09:25:02;16.55;82.89
83808;SHT31;73824;40.292;17.998;2023-12-14T09:27:29;16.65;82.43
83808;SHT31;73824;40.292;17.998;2023-12-14T09:29:55;16.69;82.17
83808;SHT31;73824;40.292;17.998;2023-12-14T09:32:21;16.73;81.43
83808;SHT31;73824;40.292;17.998;2023-12-14T09:34:47;16.75;81.18
83808;SHT31;73824;40.292;17.998;2023-12-14T09:37:12;16.58;81.03
83808;SHT31;73824;40.292;17.998;2023-12-14T09:39:39;16.62;81.52
83808;SHT31;73824;40.292;17.998;2023-12-14T09:42:06;16.71;80.57
83808;SHT31;73824;40.292;17.998;2023-12-14T09:44:33;16.77;79.40
83808;SHT31;73824;40.292;17.998;2023-12-14T09:47:00;16.93;79.84
83808;SHT31;73824;40.292;17.998;2023-12-14T09:49:29;16.93;79.20
83808;SHT31;73824;40.292;17.998;2023-12-14T09:51:58;16.79;78.96
83808;SHT31;73824;40.292;17.998;2023-12-14T09:54:25;16.75;78.73
83808;SHT31;73824;40.292;17.998;2023-12-14T09:56:51;16.79;79.13
83808;SHT31;73824;40.292;17.998;2023-12-14T09:59:18;16.90;79.10
83808;SHT31;73824;40.292;17.998;2023-12-14T10:01:44;17.04;78.53
83808;SHT31;73824;40.292;17.998;2023-12-14T10:04:14;16.94;78.61
83808;SHT31;73824;40.292;17.998;2023-12-14T10:06:42;17.00;78.70
83808;SHT31;73824;40.292;17.998;2023-12-14T10:09:08;17.10;79.05
83808;SHT31;73824;40.292;17.998;2023-12-14T10:11:44;17.14;78.40
83808;SHT31;73824;40.292;17.998;2023-12-14T10:14:20;16.99;77.44
83808;SHT31;73824;40.292;17.998;2023-12-14T10:16:47;16.82;78.01
83808;SHT31;73824;40.292;17.998;2023-12-14T10:19:12;16.62;78.76
83808;SHT31;73824;40.292;17.998;2023-12-14T10:21:38;16.80;78.40
83808;SHT31;73824;40.292;17.998;2023-12-14T10:24:05;16.73;78.72
83808;SHT31;73824;40.292;17.998;2023-12-14T10:26:31;16.77;78.42
83808;SHT31;73824;40.292;17.998;2023-12-14T10:28:56;16.73;78.57
83808;SHT31;73824;40.292;17.998;2023-12-14T10:31:23;16.72;77.88
83808;SHT31;73824;40.292;17.998;2023-12-14T10:33:49;16.68;77.89
83808;SHT31;73824;40.292;17.998;2023-12-14T10:36:19;16.65;77.11
83808;SHT31;73824;40.292;17.998;2023-12-14T10:38:48;16.75;77.53
83808;SHT31;73824;40.292;17.998;2023-12-14T10:41:17;16.75;77.40
83808;SHT31;73824;40.292;17.998;2023-12-14T10:43:44;17.00;77.45
83808;SHT31;73824;40.292;17.998;2023-12-14T10:46:13;17.23;76.03
83808;SHT31;73824;40.292;17.998;2023-12-14T10:48:39;17.13;76.60
83808;SHT31;73824;40.292;17.998;2023-12-14T10:51:08;16.89;76.62
83808;SHT31;73824;40.292;17.998;2023-12-14T10:53:35;16.80;77.31
83808;SHT31;73824;40.292;17.998;2023-12-14T10:56:04;16.90;77.48
83808;SHT31;73824;40.292;17.998;2023-12-14T10:59:02;16.92;77.25
83808;SHT31;73824;40.292;17.998;2023-12-14T11:01:28;16.89;77.58
83808;SHT31;73824;40.292;17.998;2023-12-14T11:03:59;16.96;77.25
83808;SHT31;73824;40.292;17.998;2023-12-14T11:08:54;16.75;77.32
83808;SHT31;73824;40.292;17.998;2023-12-14T11:11:21;16.51;77.43
83808;SHT31;73824;40.292;17.998;2023-12-14T11:13:52;16.32;77.69
83808;SHT31;73824;40.292;17.998;2023-12-14T11:16:22;16.24;78.26
83808;SHT31;73824;40.292;17.998;2023-12-14T11:18:48;16.11;78.68
83808;SHT31;73824;40.292;17.998;2023-12-14T11:21:19;16.18;78.87
83808;SHT31;73824;40.292;17.998;2023-12-14T11:23:50;16.24;77.92
83808;SHT31;73824;40.292;17.998;2023-12-14T11:26:21;16.08;76.79
83808;SHT31;73824;40.292;17.998;2023-12-14T11:28:48;16.06;75.72
83808;SHT31;73824;40.292;17.998;2023-12-14T11:31:14;16.11;75.62
83808;SHT31;73824;40.292;17.998;2023-12-14T11:33:40;15.94;76.05
83808;SHT31;73824;40.292;17.998;2023-12-14T11:36:06;15.98;75.17
83808;SHT31;73824;40.292;17.998;2023-12-14T11:38:32;15.94;73.44
83808;SHT31;73824;40.292;17.998;2023-12-14T11:41:00;16.06;71.64
83808;SHT31;73824;40.292;17.998;2023-12-14T11:43:26;16.03;71.50
83808;SHT31;73824;40.292;17.998;2023-12-14T11:45:52;16.01;70.96
83808;SHT31;73824;40.292;17.998;2023-12-14T11:48:19;15.93;70.86
83808;SHT31;73824;40.292;17.998;2023-12-14T11:50:46;15.93;70.19
83808;SHT31;73824;40.292;17.998;2023-12-14T11:53:12;15.82;69.87
83808;SHT31;73824;40.292;17.998;2023-12-14T11:55:40;15.85;69.84
83808;SHT31;73824;40.292;17.998;2023-12-14T11:58:06;15.76;70.46
83808;SHT31;73824;40.292;17.998;2023-12-14T12:00:32;15.66;69.56
83808;SHT31;73824;40.292;17.998;2023-12-14T12:05:43;15.63;69.42
83808;SHT31;73824;40.292;17.998;2023-12-14T12:08:09;15.60;67.81
83808;SHT31;73824;40.292;17.998;2023-12-14T12:10:36;15.43;68.08
83808;SHT31;73824;40.292;17.998;2023-12-14T12:13:04;15.18;67.87
83808;SHT31;73824;40.292;17.998;2023-12-14T12:15:31;15.27;68.13
83808;SHT31;73824;40.292;17.998;2023-12-14T12:17:57;15.38;68.26
83808;SHT31;73824;40.292;17.998;2023-12-14T12:20:23;15.24;69.61
83808;SHT31;73824;40.292;17.998;2023-12-14T12:22:49;15.24;68.29
83808;SHT31;73824;40.292;17.998;2023-12-14T12:25:14;15.21;69.19
83808;SHT31;73824;40.292;17.998;2023-12-14T12:27:40;15.21;67.75
83808;SHT31;73824;40.292;17.998;2023-12-14T12:30:06;15.22;67.77
83808;SHT31;73824;40.292;17.998;2023-12-14T12:32:32;15.08;67.44
83808;SHT31;73824;40.292;17.998;2023-12-14T12:34:57;15.04;68.88
83808;SHT31;73824;40.292;17.998;2023-12-14T12:37:23;14.97;68.59
83808;SHT31;73824;40.292;17.998;2023-12-14T12:39:49;15.08;68.83
83808;SHT31;73824;40.292;17.998;2023-12-14T12:42:15;15.08;68.89
83808;SHT31;73824;40.292;17.998;2023-12-14T12:44:41;15.07;68.71
83808;SHT31;73824;40.292;17.998;2023-12-14T12:47:06;15.02;68.85
83808;SHT31;73824;40.292;17.998;2023-12-14T12:49:32;15.12;69.10
83808;SHT31;73824;40.292;17.998;2023-12-14T12:51:57;14.97;69.06
83808;SHT31;73824;40.292;17.998;2023-12-14T12:54:23;14.93;69.20
83808;SHT31;73824;40.292;17.998;2023-12-14T12:56:48;14.83;68.92
83808;SHT31;73824;40.292;17.998;2023-12-14T12:59:14;14.81;68.80
83808;SHT31;73824;40.292;17.998;2023-12-14T13:01:39;14.69;69.41
83808;SHT31;73824;40.292;17.998;2023-12-14T13:04:18;14.73;69.42
83808;SHT31;73824;40.292;17.998;2023-12-14T13:06:43;14.59;69.64
83808;SHT31;73824;40.292;17.998;2023-12-14T13:09:09;14.52;69.42
83808;SHT31;73824;40.292;17.998;2023-12-14T13:11:35;14.45;70.40
83808;SHT31;73824;40.292;17.998;2023-12-14T13:14:01;14.32;71.07
83808;SHT31;73824;40.292;17.998;2023-12-14T13:16:30;14.09;72.18
83808;SHT31;73824;40.292;17.998;2023-12-14T13:18:55;13.95;71.93
83808;SHT31;73824;40.292;17.998;2023-12-14T13:21:21;14.02;71.72
83808;SHT31;73824;40.292;17.998;2023-12-14T13:23:47;13.98;72.62
83808;SHT31;73824;40.292;17.998;2023-12-14T13:26:12;14.04;72.76
83808;SHT31;73824;40.292;17.998;2023-12-14T13:28:38;13.95;72.40
83808;SHT31;73824;40.292;17.998;2023-12-14T13:31:04;13.97;72.51
83808;SHT31;73824;40.292;17.998;2023-12-14T13:33:29;13.87;72.80
83808;SHT31;73824;40.292;17.998;2023-12-14T13:35:55;13.84;72.88
83808;SHT31;73824;40.292;17.998;2023-12-14T13:38:20;13.78;72.91
83808;SHT31;73824;40.292;17.998;2023-12-14T13:40:46;13.61;73.73
83808;SHT31;73824;40.292;17.998;2023-12-14T13:43:11;13.53;74.65
83808;SHT31;73824;40.292;17.998;2023-12-14T13:45:38;13.44;74.95
83808;SHT31;73824;40.292;17.998;2023-12-14T13:48:04;13.47;75.38
83808;SHT31;73824;40.292;17.998;2023-12-14T13:50:30;13.18;76.61
83808;SHT31;73824;40.292;17.998;2023-12-14T13:52:56;13.13;77.09
83808;SHT31;73824;40.292;17.998;2023-12-14T13:55:21;13.10;77.26
83808;SHT31;73824;40.292;17.998;2023-12-14T13:57:47;12.95;78.26
83808;SHT31;73824;40.292;17.998;2023-12-14T14:00:14;12.84;79.75
83808;SHT31;73824;40.292;17.998;2023-12-14T14:02:40;12.75;80.99
83808;SHT31;73824;40.292;17.998;2023-12-14T14:05:06;12.68;81.42
83808;SHT31;73824;40.292;17.998;2023-12-14T14:07:31;12.61;82.15
83808;SHT31;73824;40.292;17.998;2023-12-14T14:10:03;12.41;82.80
83808;SHT31;73824;40.292;17.998;2023-12-14T14:12:30;12.48;82.81
83808;SHT31;73824;40.292;17.998;2023-12-14T14:14:58;12.40;83.38
83808;SHT31;73824;40.292;17.998;2023-12-14T14:17:24;12.34;84.02
83808;SHT31;73824;40.292;17.998;2023-12-14T14:19:49;12.26;84.39
83808;SHT31;73824;40.292;17.998;2023-12-14T14:22:15;12.30;84.19
83808;SHT31;73824;40.292;17.998;2023-12-14T14:24:41;12.24;84.69
83808;SHT31;73824;40.292;17.998;2023-12-14T14:27:06;12.20;85.17
83808;SHT31;73824;40.292;17.998;2023-12-14T14:29:34;12.16;85.70
83808;SHT31;73824;40.292;17.998;2023-12-14T14:32:00;12.16;85.80
83808;SHT31;73824;40.292;17.998;2023-12-14T14:34:25;12.12;85.76
83808;SHT31;73824;40.292;17.998;2023-12-14T14:36:51;12.16;85.17
83808;SHT31;73824;40.292;17.998;2023-12-14T14:39:23;12.03;85.62
83808;SHT31;73824;40.292;17.998;2023-12-14T14:41:48;12.02;85.82
83808;SHT31;73824;40.292;17.998;2023-12-14T14:44:14;12.10;85.71
83808;SHT31;73824;40.292;17.998;2023-12-14T14:46:39;12.07;85.75
83808;SHT31;73824;40.292;17.998;2023-12-14T14:49:05;12.14;85.99
83808;SHT31;73824;40.292;17.998;2023-12-14T14:51:39;12.14;85.45
83808;SHT31;73824;40.292;17.998;2023-12-14T14:54:05;12.10;84.98
83808;SHT31;73824;40.292;17.998;2023-12-14T14:56:31;12.22;84.64
83808;SHT31;73824;40.292;17.998;2023-12-14T14:58:56;12.09;85.37
83808;SHT31;73824;40.292;17.998;2023-12-14T15:01:22;12.13;85.52
83808;SHT31;73824;40.292;17.998;2023-12-14T15:03:48;12.13;85.18
83808;SHT31;73824;40.292;17.998;2023-12-14T15:06:13;12.12;85.45
83808;SHT31;73824;40.292;17.998;2023-12-14T15:08:39;12.09;85.75
83808;SHT31;73824;40.292;17.998;2023-12-14T15:11:04;12.00;85.68
83808;SHT31;73824;40.292;17.998;2023-12-14T15:13:33;12.10;85.91